createdAt,value
2022-11-02T00:00:40.213Z,101158.03
2022-11-02T00:03:07.134Z,101153.78
2022-11-02T00:05:34.151Z,101160.06
2022-11-02T00:08:00.633Z,101148.69
2022-11-02T00:10:27.105Z,101152.16
2022-11-02T00:12:53.623Z,101153.06
2022-11-02T00:15:20.302Z,101144.25
2022-11-02T00:17:51.278Z,101142.50
2022-11-02T00:20:19.336Z,101139.03
2022-11-02T00:22:48.124Z,101138.06
2022-11-02T00:25:16.482Z,101130.97
2022-11-02T00:27:43.111Z,101136.44
2022-11-02T00:30:10.436Z,101135.50
2022-11-02T00:32:36.927Z,101125.91
2022-11-02T00:35:03.468Z,101130.38
2022-11-02T00:37:29.982Z,101119.66
2022-11-02T00:39:56.470Z,101115.22
2022-11-02T00:42:22.900Z,101117.91
2022-11-02T00:44:49.426Z,101120.56
2022-11-02T00:47:15.875Z,101110.25
2022-11-02T00:49:42.333Z,101122.47
2022-11-02T00:52:08.813Z,101122.22
2022-11-02T00:54:35.527Z,101130.09
2022-11-02T00:59:33.404Z,101112.75
2022-11-02T01:02:00.088Z,101105.44
2022-11-02T01:04:26.656Z,101106.59
2022-11-02T01:06:53.236Z,101103.81
2022-11-02T01:09:19.775Z,101097.94
2022-11-02T01:11:46.281Z,101103.84
2022-11-02T01:14:12.713Z,101093.31
2022-11-02T01:16:41.466Z,101084.66
2022-11-02T01:19:08.185Z,101082.91
2022-11-02T01:21:34.960Z,101088.38
2022-11-02T01:24:01.422Z,101082.25
2022-11-02T01:26:27.889Z,101084.75
2022-11-02T01:28:54.849Z,101076.34
2022-11-02T01:31:21.551Z,101063.94
2022-11-02T01:33:48.083Z,101077.88
2022-11-02T01:36:16.184Z,101064.78
2022-11-02T01:38:42.790Z,101062.09
2022-11-02T01:41:11.552Z,101065.63
2022-11-02T01:43:38.083Z,101055.28
2022-11-02T01:46:07.959Z,101071.81
2022-11-02T01:48:41.895Z,101057.88
2022-11-02T01:51:14.710Z,101056.19
2022-11-02T01:53:43.916Z,101052.59
2022-11-02T01:56:13.510Z,101046.50
2022-11-02T01:58:40.915Z,101040.47
2022-11-02T02:01:07.981Z,101044.72
2022-11-02T02:03:35.620Z,101055.19
2022-11-02T02:06:13.394Z,101052.69
2022-11-02T02:08:43.422Z,101057.97
2022-11-02T02:11:25.151Z,101044.88
2022-11-02T02:13:51.695Z,101042.22
2022-11-02T02:16:23.598Z,101043.13
2022-11-02T02:19:01.305Z,101033.53
2022-11-02T02:21:49.668Z,101025.59
2022-11-02T02:24:54.051Z,101024.72
2022-11-02T02:27:24.570Z,101018.66
2022-11-02T02:30:08.030Z,101017.66
2022-11-02T02:32:55.644Z,101000.34
2022-11-02T02:35:31.017Z,101002.88
2022-11-02T02:38:01.655Z,101014.25
2022-11-02T02:40:38.988Z,101023.78
2022-11-02T02:43:09.752Z,101027.34
2022-11-02T02:45:58.930Z,101038.59
2022-11-02T02:48:25.701Z,101039.28
2022-11-02T02:51:14.723Z,101035.66
2022-11-02T02:53:44.812Z,101023.72
2022-11-02T02:56:12.147Z,101024.31
2022-11-02T02:58:45.706Z,101037.34
2022-11-02T03:01:14.095Z,101029.22
2022-11-02T03:03:42.340Z,101024.22
2022-11-02T03:06:22.440Z,101007.56
2022-11-02T03:09:01.274Z,101009.50
2022-11-02T03:11:28.211Z,101010.31
2022-11-02T03:14:06.501Z,101012.56
2022-11-02T03:16:54.752Z,101020.06
2022-11-02T03:19:47.954Z,101014.47
2022-11-02T03:22:33.395Z,101015.44
2022-11-02T03:25:05.172Z,101014.59
2022-11-02T03:27:40.386Z,101018.38
2022-11-02T03:30:15.569Z,101012.59
2022-11-02T03:32:50.483Z,101014.59
2022-11-02T03:35:25.763Z,101000.53
2022-11-02T03:38:05.560Z,101000.03
2022-11-02T03:40:37.883Z,100992.97
2022-11-02T03:43:05.498Z,100999.09
2022-11-02T03:45:43.462Z,100998.97
2022-11-02T03:48:11.861Z,100997.25
2022-11-02T03:50:43.904Z,100988.69
2022-11-02T03:53:13.663Z,100999.06
2022-11-02T03:55:42.807Z,100992.16
2022-11-02T03:58:12.615Z,101002.50
2022-11-02T04:00:45.875Z,101000.78
2022-11-02T04:03:12.985Z,100997.22
2022-11-02T04:05:39.477Z,100993.75
2022-11-02T04:08:21.637Z,101000.63
2022-11-02T04:11:07.793Z,100999.88
2022-11-02T04:13:53.096Z,101007.72
2022-11-02T04:16:23.646Z,100995.47
2022-11-02T04:19:12.959Z,100986.69
2022-11-02T04:21:39.574Z,100996.50
2022-11-02T04:24:25.124Z,101004.16
2022-11-02T04:26:51.536Z,100988.75
2022-11-02T04:29:17.960Z,101007.88
2022-11-02T04:31:44.403Z,100991.25
2022-11-02T04:34:10.843Z,100995.78
2022-11-02T04:36:37.300Z,100999.94
2022-11-02T04:39:03.806Z,100993.06
2022-11-02T04:41:42.345Z,100999.06
2022-11-02T04:44:14.502Z,100996.44
2022-11-02T04:46:42.100Z,100995.59
2022-11-02T04:49:09.139Z,100993.97
2022-11-02T04:51:35.721Z,100995.59
2022-11-02T04:54:02.729Z,100980.00
2022-11-02T04:56:30.199Z,100979.66
2022-11-02T04:58:58.418Z,100971.25
2022-11-02T05:01:27.307Z,100967.75
2022-11-02T05:03:54.772Z,100972.06
2022-11-02T05:06:22.747Z,100972.06
2022-11-02T05:08:49.299Z,100964.28
2022-11-02T05:11:16.125Z,100973.81
2022-11-02T05:13:42.643Z,100966.94
2022-11-02T05:16:12.790Z,100977.38
2022-11-02T05:18:39.246Z,100972.94
2022-11-02T05:21:05.898Z,100973.94
2022-11-02T05:23:32.709Z,100995.66
2022-11-02T05:26:01.388Z,100992.06
2022-11-02T05:28:28.637Z,100974.78
2022-11-02T05:30:55.522Z,100985.97
2022-11-02T05:33:24.527Z,100965.75
2022-11-02T05:35:56.178Z,100978.81
2022-11-02T05:38:23.817Z,100971.22
2022-11-02T05:40:54.445Z,100987.69
2022-11-02T05:43:21.017Z,100969.47
2022-11-02T05:45:57.934Z,100968.56
2022-11-02T05:48:25.330Z,100976.28
2022-11-02T05:50:56.729Z,100973.84
2022-11-02T05:53:23.868Z,100985.22
2022-11-02T05:55:50.507Z,100978.16
2022-11-02T05:58:16.957Z,100980.75
2022-11-02T06:00:43.439Z,100979.91
2022-11-02T06:03:09.915Z,100976.44
2022-11-02T06:05:36.482Z,100973.00
2022-11-02T06:08:03.086Z,100979.19
2022-11-02T06:10:30.604Z,100971.25
2022-11-02T06:13:03.001Z,100974.72
2022-11-02T06:15:31.646Z,100981.69
2022-11-02T06:17:58.168Z,100980.94
2022-11-02T06:20:24.593Z,100982.59
2022-11-02T06:22:51.091Z,100983.47
2022-11-02T06:25:17.671Z,100972.03
2022-11-02T06:27:55.074Z,100988.56
2022-11-02T06:30:21.631Z,100985.94
2022-11-02T06:32:49.047Z,100990.25
2022-11-02T06:35:19.968Z,100994.72
2022-11-02T06:37:46.505Z,100997.22
2022-11-02T06:40:13.797Z,100995.63
2022-11-02T06:42:45.069Z,100995.59
2022-11-02T06:45:11.859Z,100997.34
2022-11-02T06:47:38.697Z,101001.56
2022-11-02T06:50:06.582Z,101005.88
2022-11-02T06:52:33.118Z,101009.41
2022-11-02T06:54:59.611Z,101011.22
2022-11-02T06:57:26.145Z,101016.50
2022-11-02T06:59:54.059Z,101014.66
2022-11-02T07:02:22.057Z,101009.66
2022-11-02T07:04:49.155Z,101009.41
2022-11-02T07:07:15.651Z,101012.09
2022-11-02T07:09:42.080Z,101001.59
2022-11-02T07:12:08.561Z,101008.69
2022-11-02T07:14:34.993Z,101016.56
2022-11-02T07:17:01.457Z,101014.91
2022-11-02T07:19:27.866Z,101016.59
2022-11-02T07:21:54.873Z,101024.53
2022-11-02T07:24:21.299Z,101030.50
2022-11-02T07:26:50.063Z,101026.94
2022-11-02T07:29:17.514Z,101026.88
2022-11-02T07:31:44.649Z,101033.13
2022-11-02T07:34:16.719Z,101033.91
2022-11-02T07:36:43.838Z,101035.78
2022-11-02T07:39:10.331Z,101038.56
2022-11-02T07:41:36.841Z,101035.00
2022-11-02T07:44:03.351Z,101034.91
2022-11-02T07:46:29.776Z,101031.53
2022-11-02T07:48:56.625Z,101036.66
2022-11-02T07:51:23.100Z,101036.78
2022-11-02T07:53:49.732Z,101035.00
2022-11-02T07:56:16.213Z,101035.69
2022-11-02T07:58:42.714Z,101039.22
2022-11-02T08:01:09.310Z,101020.31
2022-11-02T08:03:35.885Z,101032.47
2022-11-02T08:06:03.267Z,101039.44
2022-11-02T08:08:29.814Z,101038.78
2022-11-02T08:11:03.708Z,101043.16
2022-11-02T08:13:32.811Z,101050.59
2022-11-02T08:15:59.747Z,101032.56
2022-11-02T08:18:28.089Z,101037.94
2022-11-02T08:20:56.540Z,101036.06
2022-11-02T08:23:23.597Z,101043.91
2022-11-02T08:25:50.956Z,101036.78
2022-11-02T08:28:25.921Z,101046.34
2022-11-02T08:30:52.614Z,101054.38
2022-11-02T08:33:19.911Z,101044.78
2022-11-02T08:35:47.345Z,101052.69
2022-11-02T08:38:14.363Z,101052.66
2022-11-02T08:40:41.110Z,101059.63
2022-11-02T08:43:09.724Z,101058.44
2022-11-02T08:46:12.844Z,101054.25
2022-11-02T08:48:25.151Z,101057.06
2022-11-02T08:50:51.814Z,101054.41
2022-11-02T08:53:18.534Z,101064.81
2022-11-02T08:55:44.990Z,101061.31
2022-11-02T08:58:11.464Z,101056.09
2022-11-02T09:00:37.893Z,101057.06
2022-11-02T09:03:04.562Z,101063.16
2022-11-02T09:05:36.759Z,101063.84
2022-11-02T09:08:05.902Z,101070.91
2022-11-02T09:10:35.095Z,101064.78
2022-11-02T09:13:03.114Z,101063.81
2022-11-02T09:15:30.081Z,101068.38
2022-11-02T09:17:56.567Z,101076.16
2022-11-02T09:20:23.498Z,101070.09
2022-11-02T09:22:50.061Z,101065.88
2022-11-02T09:25:17.340Z,101082.22
2022-11-02T09:27:44.216Z,101071.88
2022-11-02T09:30:12.291Z,101076.13
2022-11-02T09:32:39.657Z,101086.72
2022-11-02T09:35:08.904Z,101076.44
2022-11-02T09:37:35.911Z,101076.28
2022-11-02T09:40:02.567Z,101081.63
2022-11-02T09:42:45.637Z,101076.38
2022-11-02T09:45:17.566Z,101088.69
2022-11-02T09:48:20.959Z,101085.97
2022-11-02T09:50:59.365Z,101089.44
2022-11-02T09:53:35.458Z,101093.91
2022-11-02T09:56:02.884Z,101090.38
2022-11-02T09:58:40.147Z,101086.03
2022-11-02T10:01:27.748Z,101080.56
2022-11-02T10:04:10.992Z,101091.22
2022-11-02T10:06:38.928Z,101090.31
2022-11-02T10:09:29.141Z,101078.19
2022-11-02T10:12:01.699Z,101094.81
2022-11-02T10:14:31.912Z,101091.31
2022-11-02T10:17:24.093Z,101101.75
2022-11-02T10:19:55.813Z,101100.94
2022-11-02T10:22:27.898Z,101098.19
2022-11-02T10:24:56.236Z,101101.72
2022-11-02T10:27:27.683Z,101091.06
2022-11-02T10:30:08.258Z,101114.69
2022-11-02T10:32:36.645Z,101108.66
2022-11-02T10:38:03.114Z,101123.16
2022-11-02T10:40:47.970Z,101138.84
2022-11-02T10:43:17.450Z,101146.00
2022-11-02T10:46:18.251Z,101162.28
2022-11-02T10:49:03.505Z,101146.56
2022-11-02T10:51:30.418Z,101170.13
2022-11-02T10:53:57.382Z,101177.56
2022-11-02T10:56:29.632Z,101175.66
2022-11-02T10:59:04.301Z,101178.16
2022-11-02T11:01:32.211Z,101176.47
2022-11-02T11:03:58.728Z,101174.72
2022-11-02T11:06:28.578Z,101180.28
2022-11-02T11:09:00.421Z,101175.09
2022-11-02T11:11:35.867Z,101167.94
2022-11-02T11:20:06.060Z,101198.69
2022-11-02T11:22:36.781Z,101193.38
2022-11-02T11:25:12.385Z,101185.97
2022-11-02T11:27:58.682Z,101183.78
2022-11-02T11:33:21.004Z,101205.00
2022-11-02T11:35:49.596Z,101204.53
2022-11-02T11:38:19.231Z,101193.22
2022-11-02T11:40:48.925Z,101201.28
2022-11-02T11:43:17.440Z,101202.88
2022-11-02T11:46:06.763Z,101195.72
2022-11-02T11:48:48.219Z,101204.00
2022-11-02T11:51:33.998Z,101190.91
2022-11-02T11:54:14.030Z,101185.44
2022-11-02T11:56:40.531Z,101206.56
2022-11-02T11:59:20.279Z,101198.47
2022-11-02T12:01:47.059Z,101210.97
2022-11-02T12:04:13.724Z,101201.19
2022-11-02T12:06:49.309Z,101221.22
2022-11-02T12:09:45.108Z,101226.88
2022-11-02T12:12:21.935Z,101231.88
2022-11-02T12:15:10.311Z,101232.34
2022-11-02T12:18:15.845Z,101239.25
2022-11-02T12:21:04.158Z,101243.34
2022-11-02T12:23:39.612Z,101254.94
2022-11-02T12:26:24.848Z,101258.41
2022-11-02T12:29:07.642Z,101267.88
2022-11-02T12:31:42.182Z,101289.34
2022-11-02T12:34:11.662Z,101305.75
2022-11-02T12:37:31.260Z,101309.47
2022-11-02T12:40:12.065Z,101294.25
2022-11-02T12:42:53.839Z,101296.84
2022-11-02T12:45:37.468Z,101292.78
2022-11-02T12:48:05.655Z,101300.41
2022-11-02T12:50:32.432Z,101304.78
2022-11-02T12:53:24.215Z,101326.91
2022-11-02T12:55:53.422Z,101333.38
2022-11-02T12:58:30.773Z,101336.91
2022-11-02T13:01:01.658Z,101343.75
2022-11-02T13:03:48.917Z,101352.34
2022-11-02T13:06:17.901Z,101362.75
2022-11-02T13:08:54.822Z,101361.59
2022-11-02T13:11:49.026Z,101372.44
2022-11-02T13:14:18.824Z,101375.75
2022-11-02T13:16:53.497Z,101386.63
2022-11-02T13:19:41.254Z,101399.84
2022-11-02T13:22:09.869Z,101416.81
2022-11-02T13:24:42.965Z,101432.91
2022-11-02T13:27:35.806Z,101425.66
2022-11-02T13:30:06.323Z,101445.09
2022-11-02T13:32:35.918Z,101439.34
2022-11-02T13:35:34.160Z,101419.09
2022-11-02T13:38:12.819Z,101438.00
2022-11-02T13:40:43.329Z,101438.09
2022-11-02T13:43:28.081Z,101444.63
2022-11-02T13:46:02.583Z,101434.44
2022-11-02T13:48:38.038Z,101422.84
2022-11-02T13:51:27.484Z,101428.41
2022-11-02T13:54:02.014Z,101426.84
2022-11-02T13:56:29.602Z,101425.47
2022-11-02T13:59:02.765Z,101431.28
2022-11-02T14:01:32.076Z,101440.16
2022-11-02T14:04:04.742Z,101440.59
2022-11-02T14:06:33.317Z,101441.56
2022-11-02T14:09:02.079Z,101444.88
2022-11-02T14:11:42.110Z,101435.47
2022-11-02T14:14:11.512Z,101442.66
2022-11-02T14:16:50.544Z,101434.75
2022-11-02T14:19:50.329Z,101428.16
2022-11-02T14:22:18.249Z,101448.19
2022-11-02T14:24:49.399Z,101451.78
2022-11-02T14:27:16.633Z,101450.38
2022-11-02T14:29:45.985Z,101466.66
2022-11-02T14:32:23.887Z,101450.00
2022-11-02T14:35:23.608Z,101455.81
2022-11-02T14:38:02.292Z,101449.91
2022-11-02T14:41:10.991Z,101447.66
2022-11-02T14:44:08.686Z,101446.69
2022-11-02T14:46:50.413Z,101442.81
2022-11-02T14:49:32.176Z,101446.09
2022-11-02T14:52:13.797Z,101442.13
2022-11-02T14:54:48.140Z,101442.25
2022-11-02T14:57:28.699Z,101452.03
2022-11-02T14:59:57.244Z,101443.78
2022-11-02T15:02:40.286Z,101449.97
2022-11-02T15:05:35.728Z,101457.91
2022-11-02T15:08:08.138Z,101454.09
2022-11-02T15:10:38.032Z,101467.38
2022-11-02T15:13:19.740Z,101465.06
2022-11-02T15:15:46.514Z,101459.44
2022-11-02T15:18:31.206Z,101468.09
2022-11-02T15:21:13.018Z,101465.28
2022-11-02T15:24:04.683Z,101470.31
2022-11-02T15:26:51.945Z,101472.59
2022-11-02T15:29:43.632Z,101470.75
2022-11-02T15:32:22.159Z,101468.78
2022-11-02T15:34:51.064Z,101463.69
2022-11-02T15:37:22.586Z,101463.53
2022-11-02T15:39:53.555Z,101469.25
2022-11-02T15:42:44.832Z,101465.72
2022-11-02T15:45:49.020Z,101464.09
2022-11-02T15:48:49.006Z,101462.75
2022-11-02T15:51:33.885Z,101468.28
2022-11-02T15:54:18.386Z,101482.94
2022-11-02T15:57:06.223Z,101478.34
2022-11-02T15:59:37.783Z,101489.13
2022-11-02T16:02:23.672Z,101490.75
2022-11-02T16:04:53.142Z,101490.91
2022-11-02T16:07:19.909Z,101497.06
2022-11-02T16:09:46.668Z,101502.06
2022-11-02T16:12:18.985Z,101505.66
2022-11-02T16:14:51.215Z,101501.25
2022-11-02T16:17:31.244Z,101509.28
2022-11-02T16:20:09.917Z,101511.56
2022-11-02T16:22:36.963Z,101509.38
2022-11-02T16:25:10.370Z,101510.06
2022-11-02T16:27:38.532Z,101505.84
2022-11-02T16:30:05.789Z,101516.69
2022-11-02T16:32:32.752Z,101520.25
2022-11-02T16:35:01.045Z,101512.78
2022-11-02T16:37:27.598Z,101521.06
2022-11-02T16:39:54.201Z,101523.13
2022-11-02T16:42:24.284Z,101516.94
2022-11-02T16:45:29.461Z,101521.06
2022-11-02T16:47:55.998Z,101517.66
2022-11-02T16:50:26.876Z,101523.81
2022-11-02T16:53:03.742Z,101531.13
2022-11-02T16:55:42.284Z,101532.53
2022-11-02T16:58:15.040Z,101533.50
2022-11-02T17:00:54.268Z,101529.47
2022-11-02T17:03:24.646Z,101538.13
2022-11-02T17:05:51.201Z,101532.66
2022-11-02T17:08:29.843Z,101540.69
2022-11-02T17:10:59.057Z,101547.88
2022-11-02T17:13:27.021Z,101545.56
2022-11-02T17:16:06.614Z,101555.78
2022-11-02T17:18:33.160Z,101555.53
2022-11-02T17:21:25.825Z,101570.81
2022-11-02T17:23:52.435Z,101563.16
2022-11-02T17:26:21.888Z,101564.63
2022-11-02T17:28:51.337Z,101572.47
2022-11-02T17:31:26.856Z,101570.56
2022-11-02T17:33:53.827Z,101562.94
2022-11-02T17:36:20.786Z,101572.19
2022-11-02T17:38:47.249Z,101568.38
2022-11-02T17:41:36.593Z,101570.66
2022-11-02T17:44:03.945Z,101578.72
2022-11-02T17:46:30.508Z,101580.19
2022-11-02T17:48:57.780Z,101585.13
2022-11-02T17:51:24.893Z,101583.66
2022-11-02T17:53:51.348Z,101578.75
2022-11-02T17:56:17.875Z,101572.59
2022-11-02T17:58:44.405Z,101579.84
2022-11-02T18:01:12.638Z,101566.69
2022-11-02T18:03:39.671Z,101564.97
2022-11-02T18:06:06.519Z,101570.16
2022-11-02T18:08:52.981Z,101574.53
2022-11-02T18:11:24.912Z,101574.19
2022-11-02T18:13:52.634Z,101569.09
2022-11-02T18:16:19.149Z,101563.28
2022-11-02T18:18:45.775Z,101565.44
2022-11-02T18:21:12.729Z,101570.22
2022-11-02T18:23:40.940Z,101566.75
2022-11-02T18:26:09.686Z,101568.03
2022-11-02T18:28:36.202Z,101571.09
2022-11-02T18:31:05.255Z,101574.06
2022-11-02T18:33:31.803Z,101570.44
2022-11-02T18:36:03.409Z,101575.53
2022-11-02T18:38:30.019Z,101579.16
2022-11-02T18:40:56.460Z,101582.72
2022-11-02T18:43:22.909Z,101578.38
2022-11-02T18:45:49.412Z,101579.19
2022-11-02T18:48:15.962Z,101565.84
2022-11-02T18:50:42.659Z,101571.19
2022-11-02T18:53:09.924Z,101566.97
2022-11-02T18:55:39.583Z,101572.41
2022-11-02T18:58:06.319Z,101570.16
2022-11-02T19:00:33.140Z,101569.16
2022-11-02T19:02:59.576Z,101571.53
2022-11-02T19:05:44.711Z,101569.66
2022-11-02T19:08:29.715Z,101570.88
2022-11-02T19:10:56.173Z,101574.53
2022-11-02T19:13:22.645Z,101565.59
2022-11-02T19:15:49.498Z,101563.75
2022-11-02T19:18:15.935Z,101572.38
2022-11-02T19:20:42.403Z,101568.66
2022-11-02T19:23:09.925Z,101566.25
2022-11-02T19:25:36.652Z,101572.47
2022-11-02T19:28:04.635Z,101559.41
2022-11-02T19:30:31.416Z,101554.34
2022-11-02T19:32:57.888Z,101539.66
2022-11-02T19:35:24.408Z,101552.53
2022-11-02T19:37:50.839Z,101551.69
2022-11-02T19:40:17.348Z,101550.63
2022-11-02T19:42:43.791Z,101545.88
2022-11-02T19:45:16.692Z,101541.44
2022-11-02T19:47:44.048Z,101540.84
2022-11-02T19:50:11.307Z,101540.63
2022-11-02T19:52:37.758Z,101553.81
2022-11-02T19:55:04.541Z,101547.44
2022-11-02T19:57:33.366Z,101553.28
2022-11-02T20:00:00.014Z,101545.38
2022-11-02T20:02:26.519Z,101542.81
2022-11-02T20:04:53.025Z,101544.09
2022-11-02T20:07:20.376Z,101542.09
2022-11-02T20:09:46.860Z,101541.78
2022-11-02T20:12:13.304Z,101543.31
2022-11-02T20:14:39.800Z,101542.97
2022-11-02T20:17:29.514Z,101541.34
2022-11-02T20:19:52.708Z,101541.66
2022-11-02T20:22:19.121Z,101544.22
2022-11-02T20:24:45.571Z,101544.91
2022-11-02T20:27:13.970Z,101540.56
2022-11-02T20:29:40.730Z,101535.72
2022-11-02T20:32:10.219Z,101534.72
2022-11-02T20:34:36.871Z,101536.28
2022-11-02T20:37:05.083Z,101532.72
2022-11-02T20:39:31.538Z,101536.41
2022-11-02T20:41:57.967Z,101535.50
2022-11-02T20:44:25.074Z,101531.78
2022-11-02T20:46:53.244Z,101522.28
2022-11-02T20:49:22.793Z,101529.31
2022-11-02T20:52:03.139Z,101523.25
2022-11-02T20:54:30.064Z,101532.84
2022-11-02T20:56:56.993Z,101516.16
2022-11-02T20:59:23.491Z,101521.13
2022-11-02T21:01:50.180Z,101518.16
2022-11-02T21:04:20.897Z,101514.47
2022-11-02T21:06:51.343Z,101516.34
2022-11-02T21:09:18.423Z,101518.06
2022-11-02T21:12:03.459Z,101520.31
2022-11-02T21:14:29.971Z,101504.53
2022-11-02T21:16:56.424Z,101516.69
2022-11-02T21:19:22.891Z,101523.59
2022-11-02T21:21:49.302Z,101514.47
2022-11-02T21:24:15.736Z,101526.00
2022-11-02T21:26:42.157Z,101529.59
2022-11-02T21:29:09.434Z,101522.75
2022-11-02T21:31:35.931Z,101520.22
2022-11-02T21:34:02.419Z,101532.03
2022-11-02T21:36:28.871Z,101521.56
2022-11-02T21:38:55.952Z,101511.88
2022-11-02T21:41:26.550Z,101509.16
2022-11-02T21:43:55.504Z,101505.38
2022-11-02T21:46:22.433Z,101503.13
2022-11-02T21:48:49.093Z,101504.41
2022-11-02T21:51:18.974Z,101496.78
2022-11-02T21:53:46.894Z,101495.94
2022-11-02T21:56:18.924Z,101493.72
2022-11-02T21:58:46.705Z,101502.72
2022-11-02T22:01:43.771Z,101490.47
2022-11-02T22:04:31.848Z,101499.16
2022-11-02T22:06:59.438Z,101500.50
2022-11-02T22:09:26.394Z,101492.69
2022-11-02T22:12:13.143Z,101492.44
2022-11-02T22:14:41.069Z,101484.78
2022-11-02T22:17:16.699Z,101482.13
2022-11-02T22:19:55.437Z,101479.56
2022-11-02T22:22:21.939Z,101477.66
2022-11-02T22:24:49.156Z,101459.44
2022-11-02T22:27:15.587Z,101464.34
2022-11-02T22:29:42.049Z,101460.06
2022-11-02T22:32:08.544Z,101456.41
2022-11-02T22:34:35.036Z,101457.25
2022-11-02T22:37:21.459Z,101449.31
2022-11-02T22:39:47.907Z,101448.34
2022-11-02T22:42:14.337Z,101444.53
2022-11-02T22:44:40.826Z,101454.63
2022-11-02T22:47:07.263Z,101443.44
2022-11-02T22:49:36.228Z,101449.41
2022-11-02T22:52:02.943Z,101448.13
2022-11-02T22:54:29.500Z,101441.81
2022-11-02T22:56:57.005Z,101443.75
2022-11-02T22:59:23.464Z,101451.78
2022-11-02T23:01:51.322Z,101437.75
2022-11-02T23:04:17.973Z,101433.50
2022-11-02T23:06:44.399Z,101440.22
2022-11-02T23:09:12.205Z,101432.94
2022-11-02T23:11:38.808Z,101433.22
2022-11-02T23:14:10.778Z,101423.06
2022-11-02T23:16:48.349Z,101422.91
2022-11-02T23:19:28.757Z,101422.66
2022-11-02T23:22:18.370Z,101418.56
2022-11-02T23:25:10.334Z,101415.25
2022-11-02T23:27:57.807Z,101416.53
2022-11-02T23:30:44.467Z,101415.25
2022-11-02T23:33:11.193Z,101406.91
2022-11-02T23:35:56.146Z,101409.88
2022-11-02T23:38:22.648Z,101416.38
2022-11-02T23:40:53.659Z,101400.13
2022-11-02T23:43:20.103Z,101401.09
2022-11-02T23:45:46.580Z,101397.50
2022-11-02T23:48:13.087Z,101392.72
2022-11-02T23:50:58.145Z,101393.84
2022-11-02T23:53:43.272Z,101386.13
2022-11-02T23:56:33.426Z,101386.41
2022-11-02T23:59:08.967Z,101385.91
